createdAt,value
2018-06-22T00:04:44.498Z,17.12
2018-06-22T00:10:39.528Z,16.47
2018-06-22T00:16:34.505Z,17
2018-06-22T00:22:29.512Z,16.47
2018-06-22T00:28:24.516Z,14.54
2018-06-22T00:34:19.554Z,12.18
2018-06-22T00:40:14.546Z,10.94
2018-06-22T00:46:09.552Z,10.1
2018-06-22T00:52:04.560Z,9.47
2018-06-22T00:57:59.571Z,10.34
2018-06-22T01:03:54.550Z,9.64
2018-06-22T01:09:49.571Z,9.95
2018-06-22T01:15:44.566Z,9.77
2018-06-22T01:21:39.574Z,9.93
2018-06-22T01:27:34.643Z,10.36
2018-06-22T01:33:29.541Z,10.78
2018-06-22T01:39:24.558Z,10.91
2018-06-22T01:45:19.580Z,9.81
2018-06-22T01:51:14.625Z,10.61
2018-06-22T01:57:09.582Z,9.92
2018-06-22T02:03:04.576Z,9.1
2018-06-22T02:08:59.577Z,8.58
2018-06-22T02:14:54.622Z,10.06
2018-06-22T02:20:49.683Z,9.97
2018-06-22T02:26:44.582Z,9.93
2018-06-22T02:32:39.635Z,8.87
2018-06-22T02:38:34.576Z,9.75
2018-06-22T02:44:29.596Z,9.85
2018-06-22T02:50:24.631Z,10.11
2018-06-22T02:56:19.603Z,10.2
2018-06-22T03:02:14.598Z,10.03
2018-06-22T03:08:09.625Z,9.28
2018-06-22T03:14:04.623Z,9.49
2018-06-22T03:19:59.681Z,9.95
2018-06-22T03:25:54.635Z,10.01
2018-06-22T03:31:49.675Z,10.19
2018-06-22T03:37:44.613Z,10.62
2018-06-22T03:43:39.645Z,9.85
2018-06-22T03:49:34.650Z,10.6
2018-06-22T03:55:29.719Z,11.78
2018-06-22T04:01:24.653Z,12.37
2018-06-22T04:07:19.683Z,10.99
2018-06-22T04:13:14.704Z,11.91
2018-06-22T04:19:09.743Z,10.45
2018-06-22T04:25:04.663Z,10.34
2018-06-22T04:30:59.739Z,9.53
2018-06-22T04:36:54.661Z,9.83
2018-06-22T04:42:49.670Z,8.62
2018-06-22T04:48:44.764Z,8.27
2018-06-22T04:54:39.709Z,9.14
2018-06-22T05:00:34.703Z,8.1
2018-06-22T05:06:29.760Z,8.28
2018-06-22T05:12:24.730Z,8.77
2018-06-22T05:18:19.709Z,8.33
2018-06-22T05:24:14.706Z,8.83
2018-06-22T05:30:09.705Z,8.42
2018-06-22T05:36:04.745Z,9.69
2018-06-22T05:41:59.693Z,10.03
2018-06-22T05:47:54.740Z,8.7
2018-06-22T05:53:49.712Z,9.16
2018-06-22T05:59:44.745Z,9.18
2018-06-22T06:05:39.727Z,10.17
2018-06-22T06:11:34.744Z,8.61
2018-06-22T06:17:29.738Z,7.63
2018-06-22T06:23:24.726Z,8.13
2018-06-22T06:29:19.752Z,7.41
2018-06-22T06:35:14.753Z,6.84
2018-06-22T06:41:09.723Z,8.23
2018-06-22T06:47:04.747Z,7.37
2018-06-22T06:52:59.781Z,8
2018-06-22T06:58:54.764Z,7.27
2018-06-22T07:04:49.794Z,7.54
2018-06-22T07:10:44.780Z,7.47
2018-06-22T07:16:39.793Z,7.62
2018-06-22T07:22:34.756Z,7.08
2018-06-22T07:28:29.784Z,7.43
2018-06-22T07:34:24.796Z,7.17
2018-06-22T07:40:19.791Z,7.87
2018-06-22T07:46:14.801Z,8.38
2018-06-22T07:52:09.804Z,7.03
2018-06-22T07:58:04.839Z,7.7
2018-06-22T08:03:59.766Z,7.16
2018-06-22T08:09:54.800Z,7.32
2018-06-22T08:15:49.854Z,7.13
2018-06-22T08:21:44.797Z,7.57
2018-06-22T08:27:39.881Z,6.8
2018-06-22T08:33:34.783Z,7.92
2018-06-22T08:39:29.845Z,7.32
2018-06-22T08:45:24.818Z,6.93
2018-06-22T08:51:19.830Z,7.74
2018-06-22T08:57:14.844Z,6.17
2018-06-22T09:03:09.855Z,7.12
2018-06-22T09:09:04.867Z,7.58
2018-06-22T09:14:59.876Z,6.14
2018-06-22T09:20:54.851Z,5.81
2018-06-22T09:26:49.815Z,7.27
2018-06-22T09:32:44.868Z,7.33
2018-06-22T09:38:39.854Z,6.66
2018-06-22T09:44:34.872Z,5.99
2018-06-22T09:50:29.877Z,6.61
2018-06-22T09:56:24.897Z,6.17
2018-06-22T10:02:19.876Z,6.94
2018-06-22T10:08:14.910Z,5.91
2018-06-22T10:14:09.879Z,5.33
2018-06-22T10:20:04.906Z,4.66
2018-06-22T10:25:59.869Z,5.35
2018-06-22T10:31:54.892Z,4.24
2018-06-22T10:37:49.897Z,4.44
2018-06-22T10:43:44.932Z,5.28
2018-06-22T10:49:39.896Z,5.14
2018-06-22T10:55:34.913Z,5.02
2018-06-22T11:01:29.914Z,4.66
2018-06-22T11:07:24.878Z,4.69
2018-06-22T11:13:19.900Z,4.95
2018-06-22T11:19:14.908Z,5.34
2018-06-22T11:25:09.915Z,5.96
2018-06-22T11:31:04.894Z,5.72
2018-06-22T11:36:59.928Z,5.22
2018-06-22T11:42:54.892Z,5.67
2018-06-22T11:48:49.946Z,5.14
2018-06-22T11:54:44.903Z,5.72
2018-06-22T12:00:39.947Z,6.95
2018-06-22T12:06:34.958Z,5.75
2018-06-22T12:12:29.920Z,4.86
2018-06-22T12:18:24.940Z,4.38
2018-06-22T12:24:20.031Z,3.78
2018-06-22T12:30:14.993Z,4.33
2018-06-22T12:36:09.969Z,4.37
2018-06-22T12:42:04.991Z,3.01
2018-06-22T12:47:59.960Z,3.34
2018-06-22T12:53:54.974Z,3.91
2018-06-22T12:59:49.963Z,3.74
2018-06-22T13:05:44.962Z,3.52
2018-06-22T13:11:39.981Z,3.83
2018-06-22T13:17:34.988Z,5.51
2018-06-22T13:23:29.994Z,5.06
2018-06-22T13:29:24.972Z,5.02
2018-06-22T13:35:20.033Z,4.89
2018-06-22T13:41:15.026Z,4.52
2018-06-22T13:47:09.961Z,4.28
2018-06-22T13:53:04.997Z,3.97
2018-06-22T13:59:00.000Z,4.28
2018-06-22T14:04:55.013Z,5.03
2018-06-22T14:10:50.039Z,5.27
2018-06-22T14:16:44.985Z,5.11
2018-06-22T14:22:40.025Z,4.93
2018-06-22T14:28:35.051Z,5.09
2018-06-22T14:34:30.064Z,5.17
2018-06-22T14:40:25.024Z,4.25
2018-06-22T14:46:20.043Z,4.84
2018-06-22T14:52:15.049Z,5.51
2018-06-22T14:58:10.072Z,6.55
2018-06-22T15:04:05.026Z,6.33
2018-06-22T15:10:00.044Z,6.55
2018-06-22T15:15:55.126Z,5.77
2018-06-22T15:21:50.055Z,5.74
2018-06-22T15:27:45.090Z,5.25
2018-06-22T15:33:40.057Z,5.34
2018-06-22T15:39:35.069Z,5.09
2018-06-22T15:45:30.080Z,5.27
2018-06-22T15:51:25.085Z,5.36
2018-06-22T15:57:20.095Z,5.27
2018-06-22T16:03:15.094Z,4.96
2018-06-22T16:09:10.089Z,4.54
2018-06-22T16:15:05.128Z,4.8
2018-06-22T16:21:00.152Z,5.06
2018-06-22T16:26:55.135Z,4.3
2018-06-22T16:32:50.097Z,4.31
2018-06-22T16:38:45.106Z,4.55
2018-06-22T16:44:40.109Z,4.92
2018-06-22T16:50:35.129Z,5.14
2018-06-22T16:56:30.153Z,5.07
2018-06-22T17:02:29.285Z,5.07
2018-06-22T17:08:20.112Z,4.62
2018-06-22T17:14:15.157Z,4.78
2018-06-22T17:26:05.103Z,5.09
2018-06-22T17:26:05.191Z,4.69
2018-06-22T17:32:00.138Z,5.26
2018-06-22T17:37:55.143Z,5.52
2018-06-22T17:43:50.170Z,5.27
2018-06-22T17:49:45.149Z,5.17
2018-06-22T17:55:40.182Z,5
2018-06-22T18:01:35.284Z,5.42
2018-06-22T18:07:30.170Z,4.9
2018-06-22T18:13:25.150Z,5.2
2018-06-22T18:19:20.192Z,5.18
2018-06-22T18:25:15.220Z,5.47
2018-06-22T18:31:10.292Z,4.92
2018-06-22T18:37:05.240Z,5.07
2018-06-22T18:43:00.214Z,5.38
2018-06-22T18:48:55.243Z,5.84
2018-06-22T18:54:50.207Z,5.37
2018-06-22T19:00:45.231Z,5.7
2018-06-22T19:06:40.208Z,5.92
2018-06-22T19:12:35.213Z,5.77
2018-06-22T19:18:30.223Z,5.67
2018-06-22T19:24:25.185Z,6.04
2018-06-22T19:30:20.235Z,6.15
2018-06-22T19:36:15.266Z,6.99
2018-06-22T19:42:10.254Z,6.1
2018-06-22T19:48:05.412Z,6.59
2018-06-22T19:54:00.251Z,6.51
2018-06-22T19:59:55.248Z,6.35
2018-06-22T20:05:50.267Z,5.85
2018-06-22T20:11:45.262Z,6.02
2018-06-22T20:17:40.227Z,6.36
2018-06-22T20:23:35.284Z,6.14
2018-06-22T20:29:30.311Z,6.39
2018-06-22T20:35:25.250Z,6.67
2018-06-22T20:41:20.261Z,5.96
2018-06-22T20:47:15.372Z,5.12
2018-06-22T20:53:10.306Z,4.87
2018-06-22T20:59:05.316Z,4.98
2018-06-22T21:05:00.307Z,4.43
2018-06-22T21:10:55.291Z,4.61
2018-06-22T21:16:50.352Z,3.78
2018-06-22T21:22:45.348Z,2.77
2018-06-22T21:28:40.287Z,2.83
2018-06-22T21:34:35.292Z,1.56
2018-06-22T21:40:30.370Z,1.43
2018-06-22T21:46:25.302Z,1.17
2018-06-22T21:52:20.314Z,1.34
2018-06-22T21:58:15.315Z,0.98
2018-06-22T22:04:10.311Z,1.34
2018-06-22T22:10:05.334Z,1.2
2018-06-22T22:16:00.338Z,1
2018-06-22T22:21:55.403Z,1.06
2018-06-22T22:27:50.335Z,1.3
2018-06-22T22:33:45.343Z,1
2018-06-22T22:39:40.322Z,1.04
2018-06-22T22:45:35.319Z,0.99
2018-06-22T22:51:30.318Z,1.03
2018-06-22T22:57:25.393Z,1.1
2018-06-22T23:03:20.413Z,0.97
2018-06-22T23:09:15.329Z,0.98
2018-06-22T23:15:10.530Z,0.79
2018-06-22T23:21:05.360Z,0.95
2018-06-22T23:27:00.395Z,1.86
2018-06-22T23:32:55.365Z,15.09
2018-06-22T23:38:50.380Z,0.81
2018-06-22T23:44:45.423Z,0.73
2018-06-22T23:50:40.437Z,0.9
2018-06-22T23:56:35.489Z,0.58
